createdAt,value
2018-04-18T00:00:35.089Z,72.02
2018-04-18T00:03:02.531Z,72.15
2018-04-18T00:05:29.947Z,72.68
2018-04-18T00:07:57.333Z,73.64
2018-04-18T00:10:25.468Z,74.29
2018-04-18T00:12:52.872Z,74.82
2018-04-18T00:15:20.273Z,75.08
2018-04-18T00:17:47.924Z,75.04
2018-04-18T00:20:15.320Z,74.54
2018-04-18T00:22:42.715Z,74.59
2018-04-18T00:25:10.094Z,74.75
2018-04-18T00:27:37.675Z,72.70
2018-04-18T00:30:05.047Z,71.62
2018-04-18T00:32:32.436Z,70.67
2018-04-18T00:34:59.820Z,73.09
2018-04-18T00:37:27.214Z,73.50
2018-04-18T00:39:54.588Z,73.42
2018-04-18T00:42:21.980Z,73.38
2018-04-18T00:44:49.367Z,73.13
2018-04-18T00:47:16.762Z,73.29
2018-04-18T00:49:44.149Z,72.90
2018-04-18T00:52:11.836Z,73.11
2018-04-18T00:54:39.284Z,73.55
2018-04-18T00:57:06.689Z,73.11
2018-04-18T00:59:34.089Z,73.33
2018-04-18T01:02:01.486Z,73.62
2018-04-18T01:04:28.880Z,73.48
2018-04-18T01:06:56.276Z,73.57
2018-04-18T01:09:23.663Z,74.34
2018-04-18T01:11:51.055Z,74.71
2018-04-18T01:14:18.444Z,75.11
2018-04-18T01:16:45.832Z,75.77
2018-04-18T01:19:14.017Z,76.78
2018-04-18T01:21:41.448Z,76.77
2018-04-18T01:24:08.836Z,76.85
2018-04-18T01:26:36.224Z,76.46
2018-04-18T01:29:03.630Z,77.09
2018-04-18T01:31:31.016Z,77.22
2018-04-18T01:33:58.575Z,77.53
2018-04-18T01:36:25.972Z,77.32
2018-04-18T01:38:53.360Z,77.46
2018-04-18T01:41:20.749Z,78.08
2018-04-18T01:43:48.171Z,78.14
2018-04-18T01:46:15.714Z,78.19
2018-04-18T01:48:43.097Z,78.00
2018-04-18T01:51:10.477Z,77.92
2018-04-18T01:53:37.885Z,77.69
2018-04-18T01:56:05.271Z,78.15
2018-04-18T01:58:32.677Z,78.19
2018-04-18T02:01:00.071Z,78.50
2018-04-18T02:03:27.478Z,78.63
2018-04-18T02:05:54.883Z,78.31
2018-04-18T02:08:22.260Z,78.48
2018-04-18T02:10:49.672Z,78.58
2018-04-18T02:13:17.055Z,78.84
2018-04-18T02:15:44.459Z,78.75
2018-04-18T02:18:11.858Z,78.64
2018-04-18T02:20:39.243Z,78.73
2018-04-18T02:23:06.641Z,78.83
2018-04-18T02:25:34.046Z,79.07
2018-04-18T02:28:01.416Z,78.74
2018-04-18T02:30:28.821Z,78.63
2018-04-18T02:32:56.208Z,78.12
2018-04-18T02:35:23.600Z,77.64
2018-04-18T02:37:50.998Z,78.02
2018-04-18T02:40:18.393Z,77.79
2018-04-18T02:42:45.803Z,77.36
2018-04-18T02:45:13.185Z,77.77
2018-04-18T02:47:40.577Z,78.25
2018-04-18T02:50:07.970Z,78.81
2018-04-18T02:52:35.361Z,78.70
2018-04-18T02:55:02.764Z,78.66
2018-04-18T02:57:30.186Z,78.70
2018-04-18T02:59:57.587Z,79.43
2018-04-18T03:02:24.982Z,79.62
2018-04-18T03:04:52.376Z,79.85
2018-04-18T03:07:19.762Z,79.96
2018-04-18T03:09:47.153Z,80.11
2018-04-18T03:12:14.556Z,80.83
2018-04-18T03:14:41.959Z,79.87
2018-04-18T03:17:09.360Z,80.51
2018-04-18T03:19:36.767Z,81.00
2018-04-18T03:22:04.147Z,80.62
2018-04-18T03:24:31.537Z,80.30
2018-04-18T03:26:58.917Z,80.41
2018-04-18T03:29:26.313Z,81.00
2018-04-18T03:31:53.696Z,80.58
2018-04-18T03:34:21.090Z,79.86
2018-04-18T03:36:48.592Z,79.79
2018-04-18T03:39:15.993Z,80.82
2018-04-18T03:41:43.381Z,80.58
2018-04-18T03:44:10.838Z,80.06
2018-04-18T03:46:38.252Z,79.71
2018-04-18T03:49:05.637Z,79.85
2018-04-18T03:51:33.032Z,80.21
2018-04-18T03:54:00.419Z,80.35
2018-04-18T03:56:27.829Z,81.09
2018-04-18T03:58:55.223Z,81.22
2018-04-18T04:01:22.632Z,81.36
2018-04-18T04:03:50.012Z,81.12
2018-04-18T04:06:17.452Z,81.81
2018-04-18T04:08:44.829Z,81.65
2018-04-18T04:11:12.535Z,81.34
2018-04-18T04:13:39.927Z,81.54
2018-04-18T04:16:19.160Z,81.55
2018-04-18T04:18:58.171Z,81.26
2018-04-18T04:21:37.340Z,81.23
2018-04-18T04:24:17.099Z,81.01
2018-04-18T04:26:44.504Z,81.47
2018-04-18T04:29:11.925Z,81.72
2018-04-18T04:31:39.417Z,81.26
2018-04-18T04:34:06.803Z,80.75
2018-04-18T04:36:34.210Z,80.23
2018-04-18T04:39:01.609Z,80.29
2018-04-18T04:41:29.016Z,81.31
2018-04-18T04:43:56.404Z,81.39
2018-04-18T04:46:23.848Z,80.97
2018-04-18T04:48:51.241Z,81.09
2018-04-18T04:51:18.664Z,81.58
2018-04-18T04:53:46.047Z,81.53
2018-04-18T04:56:13.453Z,81.21
2018-04-18T04:58:40.844Z,80.97
2018-04-18T05:01:08.240Z,81.45
2018-04-18T05:03:35.628Z,81.16
2018-04-18T05:06:03.037Z,79.98
2018-04-18T05:08:30.421Z,79.70
2018-04-18T05:10:57.895Z,79.43
2018-04-18T05:13:25.398Z,79.62
2018-04-18T05:15:52.781Z,79.58
2018-04-18T05:18:20.212Z,79.49
2018-04-18T05:20:47.652Z,79.19
2018-04-18T05:23:15.087Z,79.16
2018-04-18T05:25:42.483Z,79.21
2018-04-18T05:28:09.879Z,79.54
2018-04-18T05:30:38.334Z,79.40
2018-04-18T05:33:05.722Z,78.28
2018-04-18T05:35:33.192Z,77.79
2018-04-18T05:38:00.677Z,77.18
2018-04-18T05:40:28.057Z,76.89
2018-04-18T05:42:55.460Z,75.75
2018-04-18T05:45:22.864Z,75.22
2018-04-18T05:47:50.322Z,74.88
2018-04-18T05:50:17.788Z,75.24
2018-04-18T05:52:45.244Z,75.06
2018-04-18T05:55:12.695Z,75.23
2018-04-18T05:57:40.223Z,74.73
2018-04-18T06:00:07.621Z,74.07
2018-04-18T06:02:35.065Z,74.17
2018-04-18T06:05:02.531Z,74.75
2018-04-18T06:07:29.992Z,76.91
2018-04-18T06:09:57.445Z,76.52
2018-04-18T06:12:24.903Z,74.05
2018-04-18T06:14:52.364Z,71.23
2018-04-18T06:17:19.821Z,69.70
2018-04-18T06:19:47.283Z,70.94
2018-04-18T06:22:14.863Z,72.82
2018-04-18T06:24:42.286Z,74.41
2018-04-18T06:27:09.668Z,75.09
2018-04-18T06:29:37.090Z,75.44
2018-04-18T06:32:04.580Z,74.83
2018-04-18T06:34:32.023Z,73.11
2018-04-18T06:36:59.472Z,73.01
2018-04-18T06:39:26.928Z,73.40
2018-04-18T06:41:54.401Z,73.41
2018-04-18T06:44:21.884Z,73.04
2018-04-18T06:46:49.416Z,72.29
2018-04-18T06:49:16.821Z,72.51
2018-04-18T06:51:44.240Z,72.43
2018-04-18T06:54:12.607Z,72.11
2018-04-18T06:56:40.040Z,71.58
2018-04-18T06:59:07.516Z,71.42
2018-04-18T07:01:34.982Z,71.07
2018-04-18T07:04:02.432Z,70.79
2018-04-18T07:06:29.875Z,70.20
2018-04-18T07:08:57.280Z,69.77
2018-04-18T07:11:24.714Z,69.22
2018-04-18T07:13:52.113Z,69.24
2018-04-18T07:16:19.533Z,67.52
2018-04-18T07:18:46.975Z,67.91
2018-04-18T07:21:14.375Z,67.44
2018-04-18T07:23:41.808Z,67.33
2018-04-18T07:26:09.253Z,66.49
2018-04-18T07:28:36.718Z,66.64
2018-04-18T07:31:04.175Z,65.45
2018-04-18T07:33:31.624Z,64.20
2018-04-18T07:35:59.421Z,64.09
2018-04-18T07:38:26.856Z,64.29
2018-04-18T07:40:54.317Z,62.30
2018-04-18T07:43:21.770Z,62.50
2018-04-18T07:45:49.251Z,61.05
2018-04-18T07:48:16.690Z,60.45
2018-04-18T07:50:44.447Z,59.89
2018-04-18T07:53:12.318Z,59.42
2018-04-18T07:55:39.709Z,60.21
2018-04-18T07:58:07.132Z,58.99
2018-04-18T08:00:34.768Z,57.79
2018-04-18T08:03:02.173Z,57.53
2018-04-18T08:05:29.595Z,55.53
2018-04-18T08:07:56.984Z,55.15
2018-04-18T08:10:24.421Z,55.43
2018-04-18T08:12:51.864Z,56.02
2018-04-18T08:15:19.394Z,55.71
2018-04-18T08:17:46.792Z,56.23
2018-04-18T08:20:15.164Z,55.36
2018-04-18T08:22:42.626Z,55.55
2018-04-18T08:25:10.029Z,55.58
2018-04-18T08:27:37.543Z,53.41
2018-04-18T08:30:05.002Z,53.88
2018-04-18T08:32:32.460Z,53.25
2018-04-18T08:34:59.925Z,52.89
2018-04-18T08:37:27.382Z,53.10
2018-04-18T08:39:54.841Z,52.61
2018-04-18T08:42:22.237Z,52.95
2018-04-18T08:44:49.737Z,51.58
2018-04-18T08:47:17.184Z,51.35
2018-04-18T08:49:44.778Z,51.04
2018-04-18T08:52:12.176Z,51.41
2018-04-18T08:54:39.593Z,51.11
2018-04-18T08:57:07.060Z,50.40
2018-04-18T08:59:34.499Z,50.82
2018-04-18T09:02:01.967Z,49.91
2018-04-18T09:04:29.428Z,49.41
2018-04-18T09:06:56.876Z,49.06
2018-04-18T09:09:24.325Z,49.37
2018-04-18T09:11:51.792Z,50.03
2018-04-18T09:14:19.353Z,48.85
2018-04-18T09:16:46.775Z,48.09
2018-04-18T09:19:14.181Z,48.13
2018-04-18T09:21:41.723Z,47.54
2018-04-18T09:24:09.184Z,47.25
2018-04-18T09:26:36.639Z,46.01
2018-04-18T09:29:04.093Z,46.53
2018-04-18T09:31:31.550Z,46.81
2018-04-18T09:33:59.009Z,45.06
2018-04-18T09:36:26.468Z,44.49
2018-04-18T09:38:53.871Z,44.09
2018-04-18T09:41:21.278Z,44.33
2018-04-18T09:43:48.841Z,44.57
2018-04-18T09:46:16.242Z,43.25
2018-04-18T09:48:43.663Z,42.32
2018-04-18T09:51:11.123Z,42.36
2018-04-18T09:53:38.666Z,41.12
2018-04-18T09:56:06.124Z,40.38
2018-04-18T09:58:33.631Z,39.69
2018-04-18T10:01:01.040Z,39.52
2018-04-18T10:03:28.504Z,39.85
2018-04-18T10:05:55.918Z,39.33
2018-04-18T10:08:23.614Z,40.37
2018-04-18T10:10:51.069Z,40.16
2018-04-18T10:13:18.548Z,39.82
2018-04-18T10:15:46.000Z,38.54
2018-04-18T10:18:13.485Z,38.42
2018-04-18T10:20:40.936Z,36.39
2018-04-18T10:23:08.366Z,38.05
2018-04-18T10:25:36.233Z,36.40
2018-04-18T10:28:03.699Z,36.87
2018-04-18T10:30:31.072Z,35.60
2018-04-18T10:32:58.511Z,36.22
2018-04-18T10:35:26.887Z,36.87
2018-04-18T10:37:54.368Z,36.10
2018-04-18T10:40:21.812Z,36.61
2018-04-18T10:42:49.272Z,36.42
2018-04-18T10:45:16.791Z,35.47
2018-04-18T10:47:44.180Z,34.95
2018-04-18T10:50:11.643Z,34.73
2018-04-18T10:52:39.103Z,35.92
2018-04-18T10:55:06.524Z,35.27
2018-04-18T10:57:33.917Z,35.65
2018-04-18T11:00:01.321Z,36.10
2018-04-18T11:02:28.717Z,36.80
2018-04-18T11:04:56.124Z,35.09
2018-04-18T11:07:23.543Z,35.62
2018-04-18T11:09:50.948Z,35.28
2018-04-18T11:12:18.333Z,34.14
2018-04-18T11:14:45.732Z,34.30
2018-04-18T11:17:13.126Z,34.94
2018-04-18T11:19:40.524Z,32.57
2018-04-18T11:22:07.913Z,34.75
2018-04-18T11:24:35.307Z,33.25
2018-04-18T11:27:02.696Z,33.02
2018-04-18T11:29:30.111Z,33.53
2018-04-18T11:31:57.480Z,29.74
2018-04-18T11:34:24.883Z,29.23
2018-04-18T11:36:52.272Z,31.16
2018-04-18T11:39:19.716Z,29.93
2018-04-18T11:41:47.112Z,33.82
2018-04-18T11:44:14.544Z,32.66
2018-04-18T11:46:41.924Z,29.51
2018-04-18T11:49:09.323Z,34.48
2018-04-18T11:51:36.732Z,27.96
2018-04-18T11:54:04.127Z,27.53
2018-04-18T11:56:31.529Z,27.96
2018-04-18T11:58:58.932Z,27.81
2018-04-18T12:01:26.338Z,28.78
2018-04-18T12:03:53.740Z,28.46
2018-04-18T12:06:21.843Z,27.48
2018-04-18T12:08:49.254Z,27.81
2018-04-18T12:11:16.651Z,27.47
2018-04-18T12:13:44.044Z,28.24
2018-04-18T12:16:11.459Z,28.81
2018-04-18T12:18:38.849Z,27.34
2018-04-18T12:21:06.264Z,27.62
2018-04-18T12:23:33.660Z,27.44
2018-04-18T12:26:01.072Z,26.96
2018-04-18T12:28:28.473Z,27.75
2018-04-18T12:30:55.883Z,27.98
2018-04-18T12:33:23.276Z,27.59
2018-04-18T12:35:51.483Z,27.97
2018-04-18T12:38:18.887Z,28.93
2018-04-18T12:40:46.285Z,26.88
2018-04-18T12:43:14.397Z,27.66
2018-04-18T12:45:41.807Z,28.12
2018-04-18T12:48:09.216Z,27.93
2018-04-18T12:50:36.626Z,28.28
2018-04-18T12:53:04.028Z,29.15
2018-04-18T12:55:31.436Z,29.02
2018-04-18T12:57:58.841Z,28.44
2018-04-18T13:00:26.227Z,26.99
2018-04-18T13:02:53.684Z,27.50
2018-04-18T13:05:21.064Z,27.72
2018-04-18T13:07:48.485Z,25.15
2018-04-18T13:10:15.903Z,26.32
2018-04-18T13:12:43.307Z,27.53
2018-04-18T13:15:10.747Z,27.50
2018-04-18T13:17:38.158Z,25.54
2018-04-18T13:20:05.559Z,24.93
2018-04-18T13:22:32.969Z,24.89
2018-04-18T13:25:00.366Z,26.04
2018-04-18T13:27:27.773Z,25.53
2018-04-18T13:29:55.178Z,25.65
2018-04-18T13:32:22.589Z,24.73
2018-04-18T13:34:50.593Z,24.26
2018-04-18T13:37:18.033Z,25.75
2018-04-18T13:39:45.424Z,25.59
2018-04-18T13:42:13.709Z,24.63
2018-04-18T13:44:41.084Z,23.90
2018-04-18T13:47:08.496Z,25.38
2018-04-18T13:49:35.884Z,24.13
2018-04-18T13:52:03.283Z,24.09
2018-04-18T13:54:30.680Z,24.01
2018-04-18T13:56:58.105Z,23.99
2018-04-18T13:59:25.596Z,23.99
2018-04-18T14:01:52.981Z,24.68
2018-04-18T14:04:20.515Z,24.49
2018-04-18T14:06:47.896Z,25.65
2018-04-18T14:09:15.338Z,22.91
2018-04-18T14:11:42.736Z,22.53
2018-04-18T14:14:10.124Z,21.90
2018-04-18T14:16:37.516Z,23.10
2018-04-18T14:19:04.912Z,24.23
2018-04-18T14:21:32.313Z,24.26
2018-04-18T14:23:59.696Z,24.86
2018-04-18T14:26:27.388Z,24.57
2018-04-18T14:28:54.872Z,24.90
2018-04-18T14:31:22.260Z,23.64
2018-04-18T14:33:49.657Z,22.62
2018-04-18T14:36:17.067Z,24.44
2018-04-18T14:38:44.509Z,24.07
2018-04-18T14:41:11.955Z,25.13
2018-04-18T14:43:39.408Z,24.31
2018-04-18T14:46:06.785Z,24.74
2018-04-18T14:48:34.199Z,25.47
2018-04-18T14:51:01.607Z,25.21
2018-04-18T14:53:28.984Z,26.26
2018-04-18T14:55:56.403Z,27.08
2018-04-18T14:58:23.853Z,26.85
2018-04-18T15:00:51.325Z,26.73
2018-04-18T15:03:18.745Z,26.82
2018-04-18T15:05:46.140Z,26.29
2018-04-18T15:08:13.522Z,26.42
2018-04-18T15:10:40.990Z,25.48
2018-04-18T15:13:08.326Z,24.31
2018-04-18T15:15:35.775Z,24.84
2018-04-18T15:18:03.220Z,25.73
2018-04-18T15:20:30.665Z,25.83
2018-04-18T15:22:58.602Z,25.67
2018-04-18T15:25:26.013Z,25.10
2018-04-18T15:27:53.450Z,26.14
2018-04-18T15:30:20.818Z,25.71
2018-04-18T15:32:48.499Z,25.50
2018-04-18T15:35:15.925Z,26.57
2018-04-18T15:37:43.308Z,25.96
2018-04-18T15:40:11.066Z,26.65
2018-04-18T15:42:38.444Z,26.20
2018-04-18T15:45:05.879Z,25.76
2018-04-18T15:47:33.320Z,26.63
2018-04-18T15:50:00.795Z,28.33
2018-04-18T15:52:28.220Z,27.45
2018-04-18T15:54:55.703Z,27.55
2018-04-18T15:57:23.170Z,26.95
2018-04-18T15:59:50.608Z,27.90
2018-04-18T16:02:18.072Z,27.71
2018-04-18T16:04:45.524Z,26.18
2018-04-18T16:07:12.988Z,25.95
2018-04-18T16:09:40.443Z,27.91
2018-04-18T16:12:07.930Z,28.80
2018-04-18T16:14:35.374Z,28.52
2018-04-18T16:17:02.828Z,28.54
2018-04-18T16:19:30.720Z,29.08
2018-04-18T16:21:58.156Z,27.79
2018-04-18T16:24:25.533Z,26.82
2018-04-18T16:26:52.970Z,27.02
2018-04-18T16:29:32.227Z,26.71
2018-04-18T16:31:59.659Z,26.90
2018-04-18T16:34:27.026Z,26.99
2018-04-18T16:36:54.494Z,28.01
2018-04-18T16:39:22.037Z,28.14
2018-04-18T16:41:49.496Z,28.54
2018-04-18T16:44:16.949Z,28.35
2018-04-18T16:46:44.328Z,28.74
2018-04-18T16:49:11.766Z,28.99
2018-04-18T16:51:39.172Z,28.47
2018-04-18T16:54:06.544Z,28.96
2018-04-18T16:56:33.943Z,29.33
2018-04-18T16:59:02.329Z,29.99
2018-04-18T17:01:29.806Z,31.01
2018-04-18T17:03:57.532Z,30.27
2018-04-18T17:06:25.820Z,29.62
2018-04-18T17:08:53.968Z,30.30
2018-04-18T17:11:21.443Z,30.29
2018-04-18T17:13:48.902Z,29.94
2018-04-18T17:16:16.270Z,29.87
2018-04-18T17:18:43.724Z,30.04
2018-04-18T17:21:11.165Z,30.31
2018-04-18T17:23:38.640Z,30.92
2018-04-18T17:26:06.089Z,30.85
2018-04-18T17:28:33.641Z,31.05
2018-04-18T17:31:01.011Z,31.52
2018-04-18T17:33:28.409Z,31.62
2018-04-18T17:35:55.799Z,31.91
2018-04-18T17:38:23.199Z,32.27
2018-04-18T17:40:50.585Z,32.55
2018-04-18T17:43:17.973Z,32.13
2018-04-18T17:45:45.357Z,32.74
2018-04-18T17:48:12.761Z,32.96
2018-04-18T17:50:40.144Z,33.28
2018-04-18T17:53:07.688Z,33.26
2018-04-18T17:55:35.078Z,33.64
2018-04-18T17:58:02.471Z,33.84
2018-04-18T18:00:29.856Z,34.17
2018-04-18T18:02:57.314Z,34.55
2018-04-18T18:05:24.766Z,34.69
2018-04-18T18:07:52.159Z,34.77
2018-04-18T18:10:19.534Z,35.16
2018-04-18T18:12:46.924Z,35.01
2018-04-18T18:15:14.419Z,35.31
2018-04-18T18:17:41.822Z,35.87
2018-04-18T18:20:09.229Z,35.90
2018-04-18T18:22:36.655Z,36.25
2018-04-18T18:25:04.188Z,37.74
2018-04-18T18:27:31.595Z,38.13
2018-04-18T18:29:59.082Z,38.31
2018-04-18T18:32:26.519Z,37.99
2018-04-18T18:34:53.922Z,38.03
2018-04-18T18:37:21.316Z,38.88
2018-04-18T18:39:48.731Z,38.95
2018-04-18T18:42:16.096Z,38.99
2018-04-18T18:44:43.490Z,39.19
2018-04-18T18:47:10.892Z,39.19
2018-04-18T18:49:38.271Z,39.38
2018-04-18T18:52:06.072Z,39.24
2018-04-18T18:54:33.453Z,39.21
2018-04-18T18:57:00.906Z,39.31
2018-04-18T18:59:28.270Z,39.68
2018-04-18T19:01:55.654Z,40.44
2018-04-18T19:04:23.177Z,40.39
2018-04-18T19:06:50.555Z,40.54
2018-04-18T19:09:17.948Z,40.76
2018-04-18T19:11:45.335Z,40.63
2018-04-18T19:14:12.730Z,40.31
2018-04-18T19:16:40.124Z,40.74
2018-04-18T19:19:07.523Z,40.47
2018-04-18T19:21:35.268Z,40.34
2018-04-18T19:24:02.763Z,40.55
2018-04-18T19:26:30.147Z,40.76
2018-04-18T19:28:57.662Z,40.65
2018-04-18T19:31:25.039Z,40.73
2018-04-18T19:33:52.884Z,40.53
2018-04-18T19:36:21.274Z,40.63
2018-04-18T19:38:48.676Z,40.84
2018-04-18T19:41:16.115Z,41.03
2018-04-18T19:43:43.499Z,41.35
2018-04-18T19:46:10.900Z,41.26
2018-04-18T19:48:38.273Z,41.29
2018-04-18T19:51:05.714Z,41.45
2018-04-18T19:53:33.364Z,41.71
2018-04-18T19:56:00.747Z,41.87
2018-04-18T19:58:28.156Z,42.00
2018-04-18T20:00:55.551Z,41.92
2018-04-18T20:03:22.940Z,42.21
2018-04-18T20:05:50.339Z,43.28
2018-04-18T20:08:17.714Z,44.02
2018-04-18T20:10:45.130Z,43.96
2018-04-18T20:13:12.517Z,44.27
2018-04-18T20:15:39.910Z,44.27
2018-04-18T20:18:07.344Z,43.85
2018-04-18T20:20:34.822Z,43.75
2018-04-18T20:23:02.180Z,43.45
2018-04-18T20:25:29.580Z,43.17
2018-04-18T20:27:56.962Z,42.61
2018-04-18T20:30:24.365Z,42.49
2018-04-18T20:32:51.771Z,42.10
2018-04-18T20:35:19.435Z,42.08
2018-04-18T20:37:46.815Z,42.21
2018-04-18T20:40:14.220Z,42.12
2018-04-18T20:42:57.541Z,42.08
2018-04-18T20:45:24.930Z,42.57
2018-04-18T20:47:52.316Z,42.59
2018-04-18T20:50:19.715Z,43.68
2018-04-18T20:52:47.100Z,44.07
2018-04-18T20:55:14.512Z,44.56
2018-04-18T20:57:42.187Z,45.01
2018-04-18T21:00:09.701Z,45.49
2018-04-18T21:02:37.115Z,45.41
2018-04-18T21:05:05.986Z,46.53
2018-04-18T21:07:33.379Z,45.21
2018-04-18T21:10:00.757Z,45.16
2018-04-18T21:12:28.150Z,44.73
2018-04-18T21:14:55.614Z,44.79
2018-04-18T21:17:22.992Z,46.31
2018-04-18T21:19:50.545Z,46.42
2018-04-18T21:22:17.951Z,46.81
2018-04-18T21:24:45.455Z,48.81
2018-04-18T21:27:12.841Z,48.40
2018-04-18T21:29:40.227Z,46.50
2018-04-18T21:32:07.619Z,47.92
2018-04-18T21:34:35.152Z,48.97
2018-04-18T21:37:02.551Z,51.28
2018-04-18T21:39:29.933Z,51.99
2018-04-18T21:41:57.664Z,50.54
2018-04-18T21:44:25.127Z,49.50
2018-04-18T21:46:52.536Z,48.38
2018-04-18T21:49:19.923Z,47.70
2018-04-18T21:51:47.327Z,47.56
2018-04-18T21:54:14.887Z,47.33
2018-04-18T21:56:42.290Z,47.86
2018-04-18T22:02:42.460Z,49.36
2018-04-18T22:05:09.847Z,49.59
2018-04-18T22:07:37.404Z,49.81
2018-04-18T22:10:04.805Z,51.15
2018-04-18T22:12:32.210Z,51.83
2018-04-18T22:14:59.606Z,53.46
2018-04-18T22:17:27.127Z,53.61
2018-04-18T22:19:54.501Z,52.69
2018-04-18T22:22:21.904Z,54.25
2018-04-18T22:24:49.287Z,54.44
2018-04-18T22:27:16.788Z,53.20
2018-04-18T22:29:44.177Z,52.83
2018-04-18T22:32:11.573Z,52.48
2018-04-18T22:34:39.067Z,52.67
2018-04-18T22:37:06.502Z,52.01
2018-04-18T22:39:33.890Z,53.72
2018-04-18T22:42:01.272Z,54.38
2018-04-18T22:44:28.908Z,54.60
2018-04-18T22:46:56.334Z,54.86
2018-04-18T22:49:23.696Z,55.42
2018-04-18T22:51:51.083Z,57.04
2018-04-18T22:54:18.656Z,57.95
2018-04-18T22:56:46.666Z,59.03
2018-04-18T22:59:14.070Z,60.08
2018-04-18T23:01:41.653Z,60.73
2018-04-18T23:04:09.044Z,59.16
2018-04-18T23:06:36.421Z,58.79
2018-04-18T23:09:03.820Z,56.93
2018-04-18T23:11:31.270Z,58.04
2018-04-18T23:13:58.672Z,58.57
2018-04-18T23:16:26.068Z,59.45
2018-04-18T23:18:53.472Z,59.91
2018-04-18T23:21:21.184Z,60.56
2018-04-18T23:23:48.599Z,59.92
2018-04-18T23:26:15.996Z,60.80
2018-04-18T23:28:43.827Z,60.89
2018-04-18T23:31:11.216Z,61.45
2018-04-18T23:33:38.616Z,62.30
2018-04-18T23:36:06.020Z,60.14
2018-04-18T23:38:33.445Z,61.31
2018-04-18T23:41:00.828Z,62.39
2018-04-18T23:43:28.238Z,62.66
2018-04-18T23:45:55.620Z,63.41
2018-04-18T23:48:23.068Z,64.52
2018-04-18T23:50:50.466Z,64.45
2018-04-18T23:53:18.319Z,65.31
2018-04-18T23:55:45.745Z,62.87
2018-04-18T23:58:13.124Z,61.23
